sensor_id;sensor_type;location;lat;lon;timestamp;P1;durP1;ratioP1;P2;durP2;ratioP2
15633;SDS011;14654;48.898;8.308;2023-04-25T00:00:37;2.30;;;2.10;;
15633;SDS011;14654;48.898;8.308;2023-04-25T00:03:03;2.40;;;2.20;;
15633;SDS011;14654;48.898;8.308;2023-04-25T00:05:30;2.80;;;2.60;;
15633;SDS011;14654;48.898;8.308;2023-04-25T00:07:56;2.70;;;2.30;;
15633;SDS011;14654;48.898;8.308;2023-04-25T00:10:22;2.60;;;2.40;;
15633;SDS011;14654;48.898;8.308;2023-04-25T00:12:47;2.17;;;2.07;;
15633;SDS011;14654;48.898;8.308;2023-04-25T00:15:13;2.53;;;2.33;;
15633;SDS011;14654;48.898;8.308;2023-04-25T00:17:39;2.70;;;2.50;;
15633;SDS011;14654;48.898;8.308;2023-04-25T00:20:04;2.40;;;2.20;;
15633;SDS011;14654;48.898;8.308;2023-04-25T00:22:31;2.60;;;2.40;;
15633;SDS011;14654;48.898;8.308;2023-04-25T00:25:00;3.00;;;2.30;;
15633;SDS011;14654;48.898;8.308;2023-04-25T00:27:26;2.87;;;2.67;;
15633;SDS011;14654;48.898;8.308;2023-04-25T00:29:51;2.83;;;2.63;;
15633;SDS011;14654;48.898;8.308;2023-04-25T00:32:17;3.00;;;2.80;;
15633;SDS011;14654;48.898;8.308;2023-04-25T00:34:42;3.60;;;3.30;;
15633;SDS011;14654;48.898;8.308;2023-04-25T00:37:07;2.97;;;2.77;;
15633;SDS011;14654;48.898;8.308;2023-04-25T00:39:33;3.70;;;3.40;;
15633;SDS011;14654;48.898;8.308;2023-04-25T00:41:58;2.90;;;2.70;;
15633;SDS011;14654;48.898;8.308;2023-04-25T00:44:25;3.17;;;2.87;;
15633;SDS011;14654;48.898;8.308;2023-04-25T00:46:52;3.47;;;3.17;;
15633;SDS011;14654;48.898;8.308;2023-04-25T00:49:19;4.10;;;3.13;;
15633;SDS011;14654;48.898;8.308;2023-04-25T00:51:44;3.37;;;3.07;;
15633;SDS011;14654;48.898;8.308;2023-04-25T00:54:10;3.00;;;2.80;;
15633;SDS011;14654;48.898;8.308;2023-04-25T00:56:37;3.23;;;2.93;;
15633;SDS011;14654;48.898;8.308;2023-04-25T00:59:03;4.03;;;3.30;;
15633;SDS011;14654;48.898;8.308;2023-04-25T01:01:28;4.07;;;3.77;;
15633;SDS011;14654;48.898;8.308;2023-04-25T01:03:54;7.73;;;7.10;;
15633;SDS011;14654;48.898;8.308;2023-04-25T01:06:20;5.53;;;5.13;;
15633;SDS011;14654;48.898;8.308;2023-04-25T01:08:47;11.47;;;10.57;;
15633;SDS011;14654;48.898;8.308;2023-04-25T01:11:12;10.73;;;9.93;;
15633;SDS011;14654;48.898;8.308;2023-04-25T01:13:38;10.80;;;9.90;;
15633;SDS011;14654;48.898;8.308;2023-04-25T01:16:03;8.13;;;7.47;;
15633;SDS011;14654;48.898;8.308;2023-04-25T01:18:29;10.70;;;9.90;;
15633;SDS011;14654;48.898;8.308;2023-04-25T01:20:54;12.60;;;11.53;;
15633;SDS011;14654;48.898;8.308;2023-04-25T01:23:20;11.90;;;11.00;;
15633;SDS011;14654;48.898;8.308;2023-04-25T01:25:47;14.13;;;13.03;;
15633;SDS011;14654;48.898;8.308;2023-04-25T01:28:14;13.60;;;12.60;;
15633;SDS011;14654;48.898;8.308;2023-04-25T01:30:39;11.90;;;11.17;;
15633;SDS011;14654;48.898;8.308;2023-04-25T01:33:05;8.00;;;7.40;;
15633;SDS011;14654;48.898;8.308;2023-04-25T01:35:33;6.40;;;6.00;;
15633;SDS011;14654;48.898;8.308;2023-04-25T01:37:58;8.93;;;8.43;;
15633;SDS011;14654;48.898;8.308;2023-04-25T01:40:24;5.87;;;5.47;;
15633;SDS011;14654;48.898;8.308;2023-04-25T01:42:50;4.97;;;4.67;;
15633;SDS011;14654;48.898;8.308;2023-04-25T01:45:16;4.73;;;4.33;;
15633;SDS011;14654;48.898;8.308;2023-04-25T01:47:42;4.27;;;3.97;;
15633;SDS011;14654;48.898;8.308;2023-04-25T01:50:09;4.53;;;4.13;;
15633;SDS011;14654;48.898;8.308;2023-04-25T01:52:36;4.53;;;4.17;;
15633;SDS011;14654;48.898;8.308;2023-04-25T01:55:01;4.27;;;3.97;;
15633;SDS011;14654;48.898;8.308;2023-04-25T01:57:27;4.87;;;4.47;;
15633;SDS011;14654;48.898;8.308;2023-04-25T01:59:58;5.07;;;4.67;;
15633;SDS011;14654;48.898;8.308;2023-04-25T02:02:25;4.13;;;3.83;;
15633;SDS011;14654;48.898;8.308;2023-04-25T02:04:51;4.07;;;3.77;;
15633;SDS011;14654;48.898;8.308;2023-04-25T02:07:16;3.83;;;3.57;;
15633;SDS011;14654;48.898;8.308;2023-04-25T02:09:42;3.53;;;3.30;;
15633;SDS011;14654;48.898;8.308;2023-04-25T02:12:08;4.00;;;3.77;;
15633;SDS011;14654;48.898;8.308;2023-04-25T02:14:34;3.40;;;3.17;;
15633;SDS011;14654;48.898;8.308;2023-04-25T02:17:00;5.13;;;3.93;;
15633;SDS011;14654;48.898;8.308;2023-04-25T02:19:25;4.20;;;3.50;;
15633;SDS011;14654;48.898;8.308;2023-04-25T02:21:50;4.20;;;3.90;;
15633;SDS011;14654;48.898;8.308;2023-04-25T02:24:16;4.23;;;3.93;;
15633;SDS011;14654;48.898;8.308;2023-04-25T02:26:41;4.50;;;4.10;;
15633;SDS011;14654;48.898;8.308;2023-04-25T02:29:06;4.63;;;4.33;;
15633;SDS011;14654;48.898;8.308;2023-04-25T02:31:32;4.43;;;4.10;;
15633;SDS011;14654;48.898;8.308;2023-04-25T02:33:57;4.13;;;3.83;;
15633;SDS011;14654;48.898;8.308;2023-04-25T02:36:22;4.33;;;4.03;;
15633;SDS011;14654;48.898;8.308;2023-04-25T02:38:48;3.87;;;3.57;;
15633;SDS011;14654;48.898;8.308;2023-04-25T02:41:14;4.10;;;3.80;;
15633;SDS011;14654;48.898;8.308;2023-04-25T02:43:39;3.80;;;3.50;;
15633;SDS011;14654;48.898;8.308;2023-04-25T02:46:05;3.80;;;3.50;;
15633;SDS011;14654;48.898;8.308;2023-04-25T02:48:32;3.70;;;3.50;;
15633;SDS011;14654;48.898;8.308;2023-04-25T02:50:58;3.90;;;3.60;;
15633;SDS011;14654;48.898;8.308;2023-04-25T02:53:23;3.47;;;3.20;;
15633;SDS011;14654;48.898;8.308;2023-04-25T02:55:48;3.67;;;3.47;;
15633;SDS011;14654;48.898;8.308;2023-04-25T02:58:14;3.90;;;3.60;;
15633;SDS011;14654;48.898;8.308;2023-04-25T03:00:40;3.63;;;3.30;;
15633;SDS011;14654;48.898;8.308;2023-04-25T03:03:05;4.20;;;3.90;;
15633;SDS011;14654;48.898;8.308;2023-04-25T03:05:31;3.60;;;3.37;;
15633;SDS011;14654;48.898;8.308;2023-04-25T03:07:56;3.70;;;3.40;;
15633;SDS011;14654;48.898;8.308;2023-04-25T03:10:21;3.80;;;3.50;;
15633;SDS011;14654;48.898;8.308;2023-04-25T03:12:47;3.63;;;3.40;;
15633;SDS011;14654;48.898;8.308;2023-04-25T03:15:12;3.63;;;3.33;;
15633;SDS011;14654;48.898;8.308;2023-04-25T03:17:37;3.80;;;3.50;;
15633;SDS011;14654;48.898;8.308;2023-04-25T03:20:03;3.90;;;3.60;;
15633;SDS011;14654;48.898;8.308;2023-04-25T03:22:29;3.83;;;3.53;;
15633;SDS011;14654;48.898;8.308;2023-04-25T03:24:54;3.93;;;3.63;;
15633;SDS011;14654;48.898;8.308;2023-04-25T03:27:19;3.70;;;3.50;;
15633;SDS011;14654;48.898;8.308;2023-04-25T03:29:45;3.30;;;3.10;;
15633;SDS011;14654;48.898;8.308;2023-04-25T03:32:10;3.80;;;3.50;;
15633;SDS011;14654;48.898;8.308;2023-04-25T03:34:35;3.80;;;3.50;;
15633;SDS011;14654;48.898;8.308;2023-04-25T03:37:01;3.63;;;3.33;;
15633;SDS011;14654;48.898;8.308;2023-04-25T03:39:26;3.50;;;3.30;;
15633;SDS011;14654;48.898;8.308;2023-04-25T03:41:51;3.50;;;3.30;;
15633;SDS011;14654;48.898;8.308;2023-04-25T03:44:17;3.50;;;3.30;;
15633;SDS011;14654;48.898;8.308;2023-04-25T03:46:42;3.40;;;3.20;;
15633;SDS011;14654;48.898;8.308;2023-04-25T03:49:07;4.03;;;3.73;;
15633;SDS011;14654;48.898;8.308;2023-04-25T03:51:33;3.80;;;3.60;;
15633;SDS011;14654;48.898;8.308;2023-04-25T03:53:58;3.93;;;3.63;;
15633;SDS011;14654;48.898;8.308;2023-04-25T03:56:23;4.30;;;3.90;;
15633;SDS011;14654;48.898;8.308;2023-04-25T03:58:49;3.70;;;3.40;;
15633;SDS011;14654;48.898;8.308;2023-04-25T04:01:14;3.97;;;3.70;;
15633;SDS011;14654;48.898;8.308;2023-04-25T04:03:40;3.90;;;3.60;;
15633;SDS011;14654;48.898;8.308;2023-04-25T04:06:05;4.57;;;4.17;;
15633;SDS011;14654;48.898;8.308;2023-04-25T04:08:32;4.30;;;4.00;;
15633;SDS011;14654;48.898;8.308;2023-04-25T04:10:58;4.00;;;3.70;;
15633;SDS011;14654;48.898;8.308;2023-04-25T04:13:25;4.40;;;4.00;;
15633;SDS011;14654;48.898;8.308;2023-04-25T04:15:52;4.20;;;3.90;;
15633;SDS011;14654;48.898;8.308;2023-04-25T04:18:17;4.00;;;3.70;;
15633;SDS011;14654;48.898;8.308;2023-04-25T04:20:42;4.10;;;3.80;;
15633;SDS011;14654;48.898;8.308;2023-04-25T04:23:08;3.63;;;3.40;;
15633;SDS011;14654;48.898;8.308;2023-04-25T04:25:33;4.23;;;3.93;;
15633;SDS011;14654;48.898;8.308;2023-04-25T04:27:59;4.13;;;3.80;;
15633;SDS011;14654;48.898;8.308;2023-04-25T04:30:26;4.30;;;3.97;;
15633;SDS011;14654;48.898;8.308;2023-04-25T04:32:54;4.30;;;3.90;;
15633;SDS011;14654;48.898;8.308;2023-04-25T04:35:20;4.67;;;4.27;;
15633;SDS011;14654;48.898;8.308;2023-04-25T04:37:46;4.23;;;3.87;;
15633;SDS011;14654;48.898;8.308;2023-04-25T04:40:12;3.87;;;3.60;;
15633;SDS011;14654;48.898;8.308;2023-04-25T04:42:40;4.40;;;4.10;;
15633;SDS011;14654;48.898;8.308;2023-04-25T04:45:06;4.30;;;3.90;;
15633;SDS011;14654;48.898;8.308;2023-04-25T04:47:32;4.50;;;4.00;;
15633;SDS011;14654;48.898;8.308;2023-04-25T04:49:58;4.40;;;4.00;;
15633;SDS011;14654;48.898;8.308;2023-04-25T04:52:24;4.17;;;3.87;;
15633;SDS011;14654;48.898;8.308;2023-04-25T04:54:49;4.30;;;3.90;;
15633;SDS011;14654;48.898;8.308;2023-04-25T04:57:14;4.77;;;4.40;;
15633;SDS011;14654;48.898;8.308;2023-04-25T04:59:41;4.43;;;4.13;;
15633;SDS011;14654;48.898;8.308;2023-04-25T05:02:06;4.40;;;4.10;;
15633;SDS011;14654;48.898;8.308;2023-04-25T05:04:32;4.10;;;3.80;;
15633;SDS011;14654;48.898;8.308;2023-04-25T05:06:57;3.90;;;3.63;;
15633;SDS011;14654;48.898;8.308;2023-04-25T05:09:22;4.43;;;4.10;;
15633;SDS011;14654;48.898;8.308;2023-04-25T05:11:50;4.13;;;3.83;;
15633;SDS011;14654;48.898;8.308;2023-04-25T05:14:16;4.30;;;4.00;;
15633;SDS011;14654;48.898;8.308;2023-04-25T05:16:42;4.40;;;4.00;;
15633;SDS011;14654;48.898;8.308;2023-04-25T05:19:08;4.20;;;3.90;;
15633;SDS011;14654;48.898;8.308;2023-04-25T05:21:33;3.80;;;3.50;;
15633;SDS011;14654;48.898;8.308;2023-04-25T05:23:59;4.20;;;3.90;;
15633;SDS011;14654;48.898;8.308;2023-04-25T05:26:25;3.23;;;2.97;;
15633;SDS011;14654;48.898;8.308;2023-04-25T05:28:50;3.73;;;3.50;;
15633;SDS011;14654;48.898;8.308;2023-04-25T05:31:16;3.57;;;3.37;;
15633;SDS011;14654;48.898;8.308;2023-04-25T05:33:41;4.50;;;4.10;;
15633;SDS011;14654;48.898;8.308;2023-04-25T05:36:06;4.40;;;4.00;;
15633;SDS011;14654;48.898;8.308;2023-04-25T05:38:32;3.50;;;3.30;;
15633;SDS011;14654;48.898;8.308;2023-04-25T05:40:58;4.00;;;3.70;;
15633;SDS011;14654;48.898;8.308;2023-04-25T05:43:23;3.53;;;3.30;;
15633;SDS011;14654;48.898;8.308;2023-04-25T05:45:48;3.30;;;3.00;;
15633;SDS011;14654;48.898;8.308;2023-04-25T05:48:14;3.53;;;3.23;;
15633;SDS011;14654;48.898;8.308;2023-04-25T05:50:39;4.13;;;3.83;;
15633;SDS011;14654;48.898;8.308;2023-04-25T05:53:04;4.50;;;3.97;;
15633;SDS011;14654;48.898;8.308;2023-04-25T05:55:30;4.20;;;3.80;;
15633;SDS011;14654;48.898;8.308;2023-04-25T05:57:56;4.33;;;4.00;;
15633;SDS011;14654;48.898;8.308;2023-04-25T06:00:21;4.13;;;3.83;;
15633;SDS011;14654;48.898;8.308;2023-04-25T06:02:47;4.27;;;3.97;;
15633;SDS011;14654;48.898;8.308;2023-04-25T06:05:13;3.83;;;3.60;;
15633;SDS011;14654;48.898;8.308;2023-04-25T06:07:38;3.70;;;3.30;;
15633;SDS011;14654;48.898;8.308;2023-04-25T06:10:03;4.13;;;3.73;;
15633;SDS011;14654;48.898;8.308;2023-04-25T06:12:31;4.30;;;4.00;;
15633;SDS011;14654;48.898;8.308;2023-04-25T06:14:58;4.33;;;4.00;;
15633;SDS011;14654;48.898;8.308;2023-04-25T06:17:23;4.43;;;4.13;;
15633;SDS011;14654;48.898;8.308;2023-04-25T06:19:48;4.23;;;3.93;;
15633;SDS011;14654;48.898;8.308;2023-04-25T06:22:13;4.00;;;3.70;;
15633;SDS011;14654;48.898;8.308;2023-04-25T06:24:39;3.60;;;3.30;;
15633;SDS011;14654;48.898;8.308;2023-04-25T06:27:04;4.30;;;4.00;;
15633;SDS011;14654;48.898;8.308;2023-04-25T06:29:30;4.37;;;4.07;;
15633;SDS011;14654;48.898;8.308;2023-04-25T06:31:55;4.20;;;3.90;;
15633;SDS011;14654;48.898;8.308;2023-04-25T06:34:20;3.97;;;3.67;;
15633;SDS011;14654;48.898;8.308;2023-04-25T06:36:46;4.23;;;3.87;;
15633;SDS011;14654;48.898;8.308;2023-04-25T06:39:11;3.70;;;3.40;;
15633;SDS011;14654;48.898;8.308;2023-04-25T06:41:36;3.73;;;3.47;;
15633;SDS011;14654;48.898;8.308;2023-04-25T06:44:02;3.80;;;3.50;;
15633;SDS011;14654;48.898;8.308;2023-04-25T06:46:27;3.70;;;3.40;;
15633;SDS011;14654;48.898;8.308;2023-04-25T06:48:53;5.00;;;3.80;;
15633;SDS011;14654;48.898;8.308;2023-04-25T06:51:18;3.53;;;3.20;;
15633;SDS011;14654;48.898;8.308;2023-04-25T06:53:43;3.63;;;3.43;;
15633;SDS011;14654;48.898;8.308;2023-04-25T06:56:08;3.57;;;3.37;;
15633;SDS011;14654;48.898;8.308;2023-04-25T06:58:34;3.73;;;3.43;;
15633;SDS011;14654;48.898;8.308;2023-04-25T07:00:59;3.80;;;3.50;;
15633;SDS011;14654;48.898;8.308;2023-04-25T07:03:25;4.03;;;3.73;;
15633;SDS011;14654;48.898;8.308;2023-04-25T07:05:50;3.87;;;3.57;;
15633;SDS011;14654;48.898;8.308;2023-04-25T07:08:16;4.40;;;3.97;;
15633;SDS011;14654;48.898;8.308;2023-04-25T07:10:41;4.37;;;3.97;;
15633;SDS011;14654;48.898;8.308;2023-04-25T07:13:07;4.53;;;4.23;;
15633;SDS011;14654;48.898;8.308;2023-04-25T07:15:32;4.03;;;3.73;;
15633;SDS011;14654;48.898;8.308;2023-04-25T07:17:58;3.87;;;3.57;;
15633;SDS011;14654;48.898;8.308;2023-04-25T07:20:23;4.20;;;3.90;;
15633;SDS011;14654;48.898;8.308;2023-04-25T07:22:48;4.60;;;4.20;;
15633;SDS011;14654;48.898;8.308;2023-04-25T07:25:15;5.00;;;4.40;;
15633;SDS011;14654;48.898;8.308;2023-04-25T07:27:40;5.07;;;4.57;;
15633;SDS011;14654;48.898;8.308;2023-04-25T07:30:06;4.67;;;4.27;;
15633;SDS011;14654;48.898;8.308;2023-04-25T07:32:32;5.00;;;4.60;;
15633;SDS011;14654;48.898;8.308;2023-04-25T07:34:57;5.07;;;4.57;;
15633;SDS011;14654;48.898;8.308;2023-04-25T07:37:23;5.13;;;4.73;;
15633;SDS011;14654;48.898;8.308;2023-04-25T07:39:48;5.23;;;4.73;;
15633;SDS011;14654;48.898;8.308;2023-04-25T07:42:13;5.23;;;4.83;;
15633;SDS011;14654;48.898;8.308;2023-04-25T07:44:39;6.07;;;5.57;;
15633;SDS011;14654;48.898;8.308;2023-04-25T07:47:08;5.27;;;4.77;;
15633;SDS011;14654;48.898;8.308;2023-04-25T07:49:34;5.00;;;4.60;;
15633;SDS011;14654;48.898;8.308;2023-04-25T07:52:01;4.67;;;4.37;;
15633;SDS011;14654;48.898;8.308;2023-04-25T07:54:26;5.67;;;5.27;;
15633;SDS011;14654;48.898;8.308;2023-04-25T07:56:52;5.17;;;4.77;;
15633;SDS011;14654;48.898;8.308;2023-04-25T07:59:17;5.23;;;4.83;;
15633;SDS011;14654;48.898;8.308;2023-04-25T08:01:43;4.83;;;4.50;;
15633;SDS011;14654;48.898;8.308;2023-04-25T08:04:08;4.33;;;4.03;;
15633;SDS011;14654;48.898;8.308;2023-04-25T08:06:33;4.07;;;3.77;;
15633;SDS011;14654;48.898;8.308;2023-04-25T08:08:58;4.57;;;4.17;;
15633;SDS011;14654;48.898;8.308;2023-04-25T08:11:24;3.60;;;3.40;;
15633;SDS011;14654;48.898;8.308;2023-04-25T08:13:50;4.40;;;4.10;;
15633;SDS011;14654;48.898;8.308;2023-04-25T08:16:15;3.70;;;3.40;;
15633;SDS011;14654;48.898;8.308;2023-04-25T08:18:40;3.87;;;3.57;;
15633;SDS011;14654;48.898;8.308;2023-04-25T08:21:06;4.83;;;4.53;;
15633;SDS011;14654;48.898;8.308;2023-04-25T08:23:33;5.20;;;4.70;;
15633;SDS011;14654;48.898;8.308;2023-04-25T08:25:59;4.43;;;4.03;;
15633;SDS011;14654;48.898;8.308;2023-04-25T08:28:24;4.53;;;4.23;;
15633;SDS011;14654;48.898;8.308;2023-04-25T08:30:50;5.10;;;4.70;;
15633;SDS011;14654;48.898;8.308;2023-04-25T08:33:15;4.40;;;4.00;;
15633;SDS011;14654;48.898;8.308;2023-04-25T08:35:40;4.30;;;4.00;;
15633;SDS011;14654;48.898;8.308;2023-04-25T08:38:05;4.17;;;3.87;;
15633;SDS011;14654;48.898;8.308;2023-04-25T08:40:31;4.33;;;4.03;;
15633;SDS011;14654;48.898;8.308;2023-04-25T08:43:02;4.13;;;3.83;;
15633;SDS011;14654;48.898;8.308;2023-04-25T08:45:29;4.00;;;3.70;;
15633;SDS011;14654;48.898;8.308;2023-04-25T08:47:56;4.93;;;4.00;;
15633;SDS011;14654;48.898;8.308;2023-04-25T08:50:22;4.60;;;4.20;;
15633;SDS011;14654;48.898;8.308;2023-04-25T08:52:48;4.50;;;4.20;;
15633;SDS011;14654;48.898;8.308;2023-04-25T08:55:17;4.90;;;4.50;;
15633;SDS011;14654;48.898;8.308;2023-04-25T08:57:43;5.13;;;4.70;;
15633;SDS011;14654;48.898;8.308;2023-04-25T09:00:10;5.60;;;5.10;;
15633;SDS011;14654;48.898;8.308;2023-04-25T09:02:37;5.03;;;4.63;;
15633;SDS011;14654;48.898;8.308;2023-04-25T09:05:04;5.87;;;5.37;;
15633;SDS011;14654;48.898;8.308;2023-04-25T09:07:31;5.83;;;5.43;;
15633;SDS011;14654;48.898;8.308;2023-04-25T09:09:57;6.27;;;5.77;;
15633;SDS011;14654;48.898;8.308;2023-04-25T09:12:24;5.30;;;5.00;;
15633;SDS011;14654;48.898;8.308;2023-04-25T09:17:32;5.17;;;4.83;;
15633;SDS011;14654;48.898;8.308;2023-04-25T09:20:11;4.70;;;4.30;;
15633;SDS011;14654;48.898;8.308;2023-04-25T09:22:38;4.30;;;4.00;;
15633;SDS011;14654;48.898;8.308;2023-04-25T09:25:07;4.50;;;4.20;;
15633;SDS011;14654;48.898;8.308;2023-04-25T09:27:35;3.77;;;3.47;;
15633;SDS011;14654;48.898;8.308;2023-04-25T09:30:01;3.50;;;3.30;;
15633;SDS011;14654;48.898;8.308;2023-04-25T09:32:26;3.70;;;3.40;;
15633;SDS011;14654;48.898;8.308;2023-04-25T09:34:53;3.53;;;3.20;;
15633;SDS011;14654;48.898;8.308;2023-04-25T09:37:21;2.83;;;2.63;;
15633;SDS011;14654;48.898;8.308;2023-04-25T09:39:49;2.33;;;2.23;;
15633;SDS011;14654;48.898;8.308;2023-04-25T09:42:16;2.53;;;2.33;;
15633;SDS011;14654;48.898;8.308;2023-04-25T09:44:42;2.40;;;2.20;;
15633;SDS011;14654;48.898;8.308;2023-04-25T09:47:10;3.47;;;2.20;;
15633;SDS011;14654;48.898;8.308;2023-04-25T09:49:38;2.50;;;2.30;;
15633;SDS011;14654;48.898;8.308;2023-04-25T09:52:08;2.40;;;2.20;;
15633;SDS011;14654;48.898;8.308;2023-04-25T09:54:34;1.93;;;1.83;;
15633;SDS011;14654;48.898;8.308;2023-04-25T09:57:02;2.00;;;1.90;;
15633;SDS011;14654;48.898;8.308;2023-04-25T09:59:38;2.57;;;2.37;;
15633;SDS011;14654;48.898;8.308;2023-04-25T10:02:06;2.20;;;2.10;;
15633;SDS011;14654;48.898;8.308;2023-04-25T10:04:33;2.07;;;1.97;;
15633;SDS011;14654;48.898;8.308;2023-04-25T10:07:00;2.10;;;1.90;;
15633;SDS011;14654;48.898;8.308;2023-04-25T10:09:32;2.37;;;2.20;;
15633;SDS011;14654;48.898;8.308;2023-04-25T10:11:59;2.63;;;2.43;;
15633;SDS011;14654;48.898;8.308;2023-04-25T10:14:25;2.53;;;2.33;;
15633;SDS011;14654;48.898;8.308;2023-04-25T10:16:51;2.13;;;2.03;;
15633;SDS011;14654;48.898;8.308;2023-04-25T10:19:19;2.30;;;2.10;;
15633;SDS011;14654;48.898;8.308;2023-04-25T10:21:49;2.53;;;1.93;;
15633;SDS011;14654;48.898;8.308;2023-04-25T10:24:21;1.70;;;1.60;;
15633;SDS011;14654;48.898;8.308;2023-04-25T10:26:48;1.90;;;1.80;;
15633;SDS011;14654;48.898;8.308;2023-04-25T10:29:18;2.57;;;2.27;;
15633;SDS011;14654;48.898;8.308;2023-04-25T10:31:50;2.47;;;2.27;;
15633;SDS011;14654;48.898;8.308;2023-04-25T10:34:16;2.87;;;2.67;;
15633;SDS011;14654;48.898;8.308;2023-04-25T10:36:42;3.37;;;3.07;;
15633;SDS011;14654;48.898;8.308;2023-04-25T10:39:15;5.93;;;5.50;;
15633;SDS011;14654;48.898;8.308;2023-04-25T10:41:53;6.57;;;6.07;;
15633;SDS011;14654;48.898;8.308;2023-04-25T10:44:21;7.27;;;6.60;;
15633;SDS011;14654;48.898;8.308;2023-04-25T10:46:47;7.97;;;7.27;;
15633;SDS011;14654;48.898;8.308;2023-04-25T10:49:28;10.23;;;9.43;;
15633;SDS011;14654;48.898;8.308;2023-04-25T10:54:55;15.73;;;14.23;;
15633;SDS011;14654;48.898;8.308;2023-04-25T10:57:38;20.83;;;17.20;;
15633;SDS011;14654;48.898;8.308;2023-04-25T11:00:13;21.93;;;17.73;;
15633;SDS011;14654;48.898;8.308;2023-04-25T11:02:44;24.77;;;19.90;;
15633;SDS011;14654;48.898;8.308;2023-04-25T11:07:59;40.73;;;26.03;;
15633;SDS011;14654;48.898;8.308;2023-04-25T11:10:30;35.90;;;25.57;;
15633;SDS011;14654;48.898;8.308;2023-04-25T11:12:57;32.10;;;24.53;;
15633;SDS011;14654;48.898;8.308;2023-04-25T11:15:23;33.37;;;26.30;;
15633;SDS011;14654;48.898;8.308;2023-04-25T11:17:53;36.50;;;27.60;;
15633;SDS011;14654;48.898;8.308;2023-04-25T11:20:19;40.80;;;28.13;;
15633;SDS011;14654;48.898;8.308;2023-04-25T11:22:46;35.40;;;26.93;;
15633;SDS011;14654;48.898;8.308;2023-04-25T11:25:12;30.17;;;23.70;;
15633;SDS011;14654;48.898;8.308;2023-04-25T11:27:51;27.60;;;21.97;;
15633;SDS011;14654;48.898;8.308;2023-04-25T11:30:18;26.60;;;21.10;;
15633;SDS011;14654;48.898;8.308;2023-04-25T11:32:44;24.03;;;19.63;;
15633;SDS011;14654;48.898;8.308;2023-04-25T11:35:10;23.97;;;19.70;;
15633;SDS011;14654;48.898;8.308;2023-04-25T11:37:36;22.37;;;19.50;;
15633;SDS011;14654;48.898;8.308;2023-04-25T11:40:02;23.03;;;19.03;;
15633;SDS011;14654;48.898;8.308;2023-04-25T11:42:28;23.53;;;19.10;;
15633;SDS011;14654;48.898;8.308;2023-04-25T11:44:55;25.17;;;20.07;;
15633;SDS011;14654;48.898;8.308;2023-04-25T11:47:20;19.53;;;17.20;;
15633;SDS011;14654;48.898;8.308;2023-04-25T11:49:52;21.13;;;18.80;;
15633;SDS011;14654;48.898;8.308;2023-04-25T11:52:18;22.80;;;19.50;;
15633;SDS011;14654;48.898;8.308;2023-04-25T11:54:44;25.00;;;19.67;;
15633;SDS011;14654;48.898;8.308;2023-04-25T11:57:09;27.93;;;21.67;;
15633;SDS011;14654;48.898;8.308;2023-04-25T11:59:34;29.20;;;22.47;;
15633;SDS011;14654;48.898;8.308;2023-04-25T12:02:00;29.57;;;24.77;;
15633;SDS011;14654;48.898;8.308;2023-04-25T12:04:29;30.90;;;24.60;;
15633;SDS011;14654;48.898;8.308;2023-04-25T12:06:57;31.50;;;25.03;;
15633;SDS011;14654;48.898;8.308;2023-04-25T12:09:32;32.87;;;25.83;;
15633;SDS011;14654;48.898;8.308;2023-04-25T12:11:58;36.97;;;28.03;;
15633;SDS011;14654;48.898;8.308;2023-04-25T12:14:28;40.77;;;29.77;;
15633;SDS011;14654;48.898;8.308;2023-04-25T12:16:57;38.57;;;28.90;;
15633;SDS011;14654;48.898;8.308;2023-04-25T12:19:23;41.70;;;29.33;;
15633;SDS011;14654;48.898;8.308;2023-04-25T12:21:49;44.47;;;31.27;;
15633;SDS011;14654;48.898;8.308;2023-04-25T12:24:16;45.73;;;32.93;;
15633;SDS011;14654;48.898;8.308;2023-04-25T12:29:25;43.17;;;34.53;;
15633;SDS011;14654;48.898;8.308;2023-04-25T12:31:52;47.03;;;34.80;;
15633;SDS011;14654;48.898;8.308;2023-04-25T12:34:19;41.63;;;32.90;;
15633;SDS011;14654;48.898;8.308;2023-04-25T12:36:46;39.20;;;31.23;;
15633;SDS011;14654;48.898;8.308;2023-04-25T12:39:30;43.13;;;33.60;;
15633;SDS011;14654;48.898;8.308;2023-04-25T12:41:55;45.53;;;34.20;;
15633;SDS011;14654;48.898;8.308;2023-04-25T12:44:21;46.77;;;33.90;;
15633;SDS011;14654;48.898;8.308;2023-04-25T12:46:46;45.90;;;33.30;;
15633;SDS011;14654;48.898;8.308;2023-04-25T12:49:12;41.60;;;30.93;;
15633;SDS011;14654;48.898;8.308;2023-04-25T12:51:38;38.80;;;29.60;;
15633;SDS011;14654;48.898;8.308;2023-04-25T12:54:04;39.33;;;28.93;;
15633;SDS011;14654;48.898;8.308;2023-04-25T12:56:32;35.50;;;27.93;;
15633;SDS011;14654;48.898;8.308;2023-04-25T12:58:57;35.90;;;28.53;;
15633;SDS011;14654;48.898;8.308;2023-04-25T13:01:24;30.07;;;26.27;;
15633;SDS011;14654;48.898;8.308;2023-04-25T13:03:50;33.77;;;26.80;;
15633;SDS011;14654;48.898;8.308;2023-04-25T13:06:16;32.57;;;27.77;;
15633;SDS011;14654;48.898;8.308;2023-04-25T13:08:43;33.73;;;28.50;;
15633;SDS011;14654;48.898;8.308;2023-04-25T13:11:08;30.10;;;26.43;;
15633;SDS011;14654;48.898;8.308;2023-04-25T13:13:34;31.13;;;26.57;;
15633;SDS011;14654;48.898;8.308;2023-04-25T13:16:00;31.03;;;27.00;;
15633;SDS011;14654;48.898;8.308;2023-04-25T13:18:29;30.60;;;27.23;;
15633;SDS011;14654;48.898;8.308;2023-04-25T13:20:55;28.83;;;25.83;;
15633;SDS011;14654;48.898;8.308;2023-04-25T13:23:21;29.90;;;26.90;;
15633;SDS011;14654;48.898;8.308;2023-04-25T13:25:47;27.33;;;24.50;;
15633;SDS011;14654;48.898;8.308;2023-04-25T13:28:13;24.50;;;22.00;;
15633;SDS011;14654;48.898;8.308;2023-04-25T13:30:39;21.57;;;19.47;;
15633;SDS011;14654;48.898;8.308;2023-04-25T13:33:04;16.40;;;14.90;;
15633;SDS011;14654;48.898;8.308;2023-04-25T13:35:31;13.77;;;12.57;;
15633;SDS011;14654;48.898;8.308;2023-04-25T13:37:58;12.33;;;11.23;;
15633;SDS011;14654;48.898;8.308;2023-04-25T13:40:23;9.97;;;9.13;;
15633;SDS011;14654;48.898;8.308;2023-04-25T13:42:48;7.70;;;7.00;;
15633;SDS011;14654;48.898;8.308;2023-04-25T13:45:14;6.57;;;6.07;;
15633;SDS011;14654;48.898;8.308;2023-04-25T13:47:39;6.00;;;5.50;;
15633;SDS011;14654;48.898;8.308;2023-04-25T13:50:05;5.40;;;5.00;;
15633;SDS011;14654;48.898;8.308;2023-04-25T13:52:32;5.30;;;4.90;;
15633;SDS011;14654;48.898;8.308;2023-04-25T13:54:57;5.30;;;4.87;;
15633;SDS011;14654;48.898;8.308;2023-04-25T13:57:23;5.40;;;5.00;;
15633;SDS011;14654;48.898;8.308;2023-04-25T13:59:49;4.87;;;4.47;;
15633;SDS011;14654;48.898;8.308;2023-04-25T14:02:15;5.67;;;5.17;;
15633;SDS011;14654;48.898;8.308;2023-04-25T14:04:40;4.57;;;4.27;;
15633;SDS011;14654;48.898;8.308;2023-04-25T14:07:06;4.60;;;4.30;;
15633;SDS011;14654;48.898;8.308;2023-04-25T14:09:32;5.63;;;5.23;;
15633;SDS011;14654;48.898;8.308;2023-04-25T14:11:57;5.87;;;5.47;;
15633;SDS011;14654;48.898;8.308;2023-04-25T14:14:23;6.10;;;5.60;;
15633;SDS011;14654;48.898;8.308;2023-04-25T14:16:49;5.53;;;5.03;;
15633;SDS011;14654;48.898;8.308;2023-04-25T14:19:15;5.60;;;5.20;;
15633;SDS011;14654;48.898;8.308;2023-04-25T14:21:41;5.73;;;5.30;;
15633;SDS011;14654;48.898;8.308;2023-04-25T14:24:08;5.80;;;5.30;;
15633;SDS011;14654;48.898;8.308;2023-04-25T14:26:33;5.33;;;4.83;;
15633;SDS011;14654;48.898;8.308;2023-04-25T14:29:00;5.23;;;4.83;;
15633;SDS011;14654;48.898;8.308;2023-04-25T14:31:26;5.80;;;5.30;;
15633;SDS011;14654;48.898;8.308;2023-04-25T14:33:51;5.60;;;5.20;;
15633;SDS011;14654;48.898;8.308;2023-04-25T14:36:16;5.60;;;5.10;;
15633;SDS011;14654;48.898;8.308;2023-04-25T14:38:42;6.10;;;5.60;;
15633;SDS011;14654;48.898;8.308;2023-04-25T14:41:07;5.77;;;5.30;;
15633;SDS011;14654;48.898;8.308;2023-04-25T14:43:33;5.40;;;4.90;;
15633;SDS011;14654;48.898;8.308;2023-04-25T14:45:58;6.33;;;5.83;;
15633;SDS011;14654;48.898;8.308;2023-04-25T14:48:23;6.50;;;6.00;;